createdAt,value
2022-10-19T00:01:20.681Z,17.00
2022-10-19T00:06:26.596Z,17.08
2022-10-19T00:11:28.294Z,16.93
2022-10-19T00:16:31.283Z,16.94
2022-10-19T00:21:32.797Z,17.17
2022-10-19T00:26:34.353Z,16.84
2022-10-19T00:31:35.797Z,16.88
2022-10-19T00:36:38.761Z,17.03
2022-10-19T00:41:40.292Z,16.76
2022-10-19T00:46:43.237Z,16.57
2022-10-19T00:51:46.482Z,16.59
2022-10-19T00:56:49.463Z,16.84
2022-10-19T01:01:50.936Z,16.61
2022-10-19T01:06:53.039Z,16.78
2022-10-19T01:12:31.110Z,16.85
2022-10-19T01:18:06.208Z,16.65
2022-10-19T01:23:35.494Z,16.92
2022-10-19T01:29:01.964Z,17.01
2022-10-19T01:34:14.563Z,16.33
2022-10-19T01:39:24.717Z,16.37
2022-10-19T01:44:54.197Z,16.52
2022-10-19T01:50:24.676Z,16.17
2022-10-19T01:55:26.343Z,16.76
2022-10-19T02:00:27.801Z,16.90
2022-10-19T02:05:30.827Z,16.96
2022-10-19T02:10:32.638Z,16.99
2022-10-19T02:15:35.669Z,17.02
2022-10-19T02:20:37.410Z,16.98
2022-10-19T02:25:38.865Z,16.90
2022-10-19T02:30:40.334Z,16.76
2022-10-19T02:35:41.780Z,16.98
2022-10-19T02:40:45.341Z,16.98
2022-10-19T02:45:57.003Z,17.06
2022-10-19T02:50:58.468Z,17.08
2022-10-19T02:55:59.930Z,17.34
2022-10-19T03:01:01.418Z,17.11
2022-10-19T03:06:02.927Z,17.27
2022-10-19T03:11:04.463Z,17.06
2022-10-19T03:16:10.369Z,17.19
2022-10-19T03:21:12.566Z,17.03
2022-10-19T03:26:15.837Z,17.17
2022-10-19T03:31:17.302Z,16.71
2022-10-19T03:36:25.604Z,16.93
2022-10-19T03:41:28.424Z,17.10
2022-10-19T03:46:30.005Z,17.09
2022-10-19T03:51:31.874Z,17.22
2022-10-19T03:56:33.531Z,17.16
2022-10-19T04:01:37.158Z,17.29
2022-10-19T04:06:39.898Z,17.35
2022-10-19T04:11:41.490Z,17.17
2022-10-19T04:16:42.973Z,17.33
2022-10-19T04:21:44.869Z,17.27
2022-10-19T04:26:48.269Z,17.34
2022-10-19T04:31:50.056Z,17.23
2022-10-19T04:36:52.545Z,17.26
2022-10-19T04:41:54.224Z,17.41
2022-10-19T04:46:55.728Z,17.47
2022-10-19T04:51:57.207Z,17.41
2022-10-19T04:56:58.669Z,17.30
2022-10-19T05:02:00.130Z,17.34
2022-10-19T05:07:01.593Z,17.23
2022-10-19T05:12:03.784Z,17.35
2022-10-19T05:17:05.238Z,17.47
2022-10-19T05:22:06.694Z,17.42
2022-10-19T05:27:08.150Z,17.45
2022-10-19T05:32:09.611Z,17.20
2022-10-19T05:37:11.064Z,16.89
2022-10-19T05:42:12.518Z,17.30
2022-10-19T05:47:14.015Z,17.11
2022-10-19T05:52:17.658Z,17.22
2022-10-19T05:57:19.197Z,17.54
2022-10-19T06:02:20.669Z,17.34
2022-10-19T06:07:22.125Z,17.59
2022-10-19T06:12:25.063Z,17.63
2022-10-19T06:17:28.776Z,17.91
2022-10-19T06:22:30.224Z,16.88
2022-10-19T06:27:32.120Z,16.16
2022-10-19T06:32:33.901Z,16.34
2022-10-19T06:37:35.585Z,17.03
2022-10-19T06:42:39.997Z,17.33
2022-10-19T06:47:41.498Z,17.51
2022-10-19T06:52:43.121Z,17.68
2022-10-19T06:57:45.189Z,17.66
2022-10-19T07:02:46.665Z,17.64
2022-10-19T07:07:48.150Z,17.80
2022-10-19T07:12:49.636Z,17.84
2022-10-19T07:17:52.817Z,17.56
2022-10-19T07:22:54.299Z,17.61
2022-10-19T07:27:55.780Z,17.58
2022-10-19T07:32:57.232Z,18.01
2022-10-19T07:37:58.689Z,18.35
2022-10-19T07:43:00.141Z,18.08
2022-10-19T16:01:56.147Z,18.27
2022-10-19T16:06:57.859Z,18.28
2022-10-19T16:11:59.305Z,18.05
2022-10-19T16:17:00.767Z,18.00
2022-10-19T16:22:02.242Z,17.90
2022-10-19T16:27:03.743Z,17.92
2022-10-19T16:32:05.299Z,18.06
2022-10-19T16:37:07.435Z,17.97
2022-10-19T16:42:09.142Z,17.88
2022-10-19T16:47:10.601Z,17.91
2022-10-19T16:52:14.014Z,17.90
2022-10-19T16:57:15.465Z,17.91
2022-10-19T17:02:16.925Z,17.94
2022-10-19T17:07:18.462Z,17.86
2022-10-19T17:12:19.931Z,17.82
2022-10-19T17:17:21.409Z,17.82
2022-10-19T17:22:22.854Z,17.82
2022-10-19T17:27:24.318Z,17.75
2022-10-19T17:32:25.780Z,17.59
2022-10-19T17:37:27.245Z,17.73
2022-10-19T17:42:28.725Z,17.67
2022-10-19T17:47:30.553Z,17.81
2022-10-19T17:52:32.033Z,17.75
2022-10-19T17:57:35.486Z,17.77
2022-10-19T18:02:37.230Z,17.71
2022-10-19T18:07:38.812Z,17.45
2022-10-19T18:12:40.279Z,17.61
2022-10-19T18:17:41.739Z,17.61
2022-10-19T18:27:49.580Z,17.50
2022-10-19T18:32:51.031Z,17.66
2022-10-19T18:37:52.475Z,17.22
2022-10-19T18:42:53.930Z,17.41
2022-10-19T18:47:55.440Z,17.21
2022-10-19T18:52:56.936Z,17.46
2022-10-19T18:57:58.400Z,17.20
2022-10-19T19:02:59.858Z,17.20
2022-10-19T19:08:01.346Z,17.11
2022-10-19T19:13:02.817Z,17.12
2022-10-19T19:18:04.540Z,16.76
2022-10-19T19:23:06.021Z,17.00
2022-10-19T19:28:07.478Z,16.95
2022-10-19T19:33:08.990Z,16.86
2022-10-19T19:38:10.993Z,17.05
2022-10-19T19:43:13.259Z,17.01
2022-10-19T19:48:14.719Z,16.62
2022-10-19T19:53:16.174Z,16.40
2022-10-19T19:58:18.816Z,16.11
2022-10-19T20:03:20.274Z,16.40
2022-10-19T20:08:21.978Z,16.19
2022-10-19T20:13:23.443Z,16.64
2022-10-19T20:18:24.918Z,16.63
2022-10-19T20:23:26.364Z,16.20
2022-10-19T20:28:28.489Z,16.55
2022-10-19T20:33:30.967Z,16.62
2022-10-19T20:38:33.460Z,16.35
2022-10-19T20:43:35.500Z,16.52
2022-10-19T20:48:37.033Z,16.38
2022-10-19T20:53:38.574Z,16.32
2022-10-19T20:58:42.445Z,16.12
2022-10-19T21:03:48.021Z,16.06
2022-10-19T21:08:49.750Z,16.34
2022-10-19T21:14:04.445Z,16.42
2022-10-19T21:19:11.411Z,16.09
2022-10-19T21:24:14.897Z,16.22
2022-10-19T21:29:16.397Z,15.98
2022-10-19T21:34:22.040Z,16.01
2022-10-19T21:39:23.554Z,16.08
2022-10-19T21:44:25.069Z,15.98
2022-10-19T21:49:26.533Z,15.97
2022-10-19T21:54:29.292Z,15.47
2022-10-19T21:59:30.779Z,15.98
2022-10-19T22:04:32.234Z,15.65
2022-10-19T22:09:34.098Z,15.60
2022-10-19T22:14:35.557Z,15.49
2022-10-19T22:19:37.015Z,15.76
2022-10-19T22:24:38.517Z,15.70
2022-10-19T22:29:39.985Z,15.53
2022-10-19T22:34:41.428Z,15.55
2022-10-19T22:39:42.904Z,15.20
2022-10-19T22:44:44.435Z,15.12
2022-10-19T22:49:45.911Z,14.79
2022-10-19T22:54:47.448Z,15.13
2022-10-19T22:59:48.895Z,14.99
2022-10-19T23:04:50.350Z,14.69
2022-10-19T23:09:52.325Z,15.35
2022-10-19T23:14:53.777Z,15.25
2022-10-19T23:19:55.267Z,15.07
2022-10-19T23:24:56.721Z,14.98
2022-10-19T23:29:58.301Z,15.08
2022-10-19T23:34:59.761Z,15.20
2022-10-19T23:40:01.677Z,15.17
2022-10-19T23:45:03.199Z,15.16
2022-10-19T23:50:04.812Z,15.04
2022-10-19T23:55:06.862Z,14.55
